Sylvester, Texas
Current Conditions -  °F | °C
As of 1:35 PM on Tuesday 21 Oct 2014 (Local Time) from KSWW Reporting Station
Scattered Clouds Scattered Clouds  
Wind Chill: 76°   Ceiling: Unl
Heat Index: 78°   Visibility: 10mi
Dew Point: 50°   Wind: 3mph
Humidity: 40%   Direction: 140°SE
Pressure: 30.12"   Gusts: NA
Location:  32.72°N, 100.26°W
Report Text: KSWW 211835Z AUTO 14003KT 10SM SCT050 25/10 A3012 RMK AO2 T02450099
Loading
Personal Weather Stations






























Interactive Weather Map
Tropical Storm Tracking
New forecast layout! Learn more

10-Day Weather Forecast

Advertisements
Track Severe Weather on mobile